Time;durP1;ratioP1;P1;durP2;ratioP2;P2;SDS_P1;SDS_P2;PMS_P1;PMS_P2;Temp;Humidity;BMP_temperature;BMP_pressure;BME280_temperature;BME280_humidity;BME280_pressure;Samples;Min_cycle;Max_cycle;Signal;HPM_P1;HPM_P2
2023/05/24 00:02:02;;;;;;;16.43;4.50;;;12.70;99.90;;;;;;10505736;28;20250;-69
2023/05/24 00:07:03;;;;;;;8.77;3.57;;;12.50;99.90;;;;;;10495001;28;20225;-69
2023/05/24 00:12:04;;;;;;;10.13;4.13;;;12.40;99.90;;;;;;10504619;28;20214;-68
2023/05/24 00:17:05;;;;;;;10.87;3.77;;;12.40;99.90;;;;;;10505278;28;20219;-69
2023/05/24 00:22:05;;;;;;;11.10;4.17;;;12.40;99.90;;;;;;10511335;28;20210;-69
2023/05/24 00:27:06;;;;;;;13.23;4.27;;;12.30;99.90;;;;;;10516678;28;20231;-70
2023/05/24 00:32:07;;;;;;;11.47;3.70;;;12.20;99.90;;;;;;10507286;28;20971;-68
2023/05/24 00:37:08;;;;;;;12.33;3.53;;;12.10;99.90;;;;;;10520789;28;20226;-68
2023/05/24 00:42:08;;;;;;;11.40;3.70;;;12.00;99.90;;;;;;10503656;28;20263;-68
2023/05/24 00:47:09;;;;;;;10.40;3.43;;;12.00;99.90;;;;;;10508809;28;20629;-70
2023/05/24 00:52:10;;;;;;;13.80;3.80;;;12.00;99.90;;;;;;10512306;28;20215;-70
2023/05/24 00:57:12;;;;;;;10.07;3.50;;;11.80;99.90;;;;;;10513403;28;20237;-70
2023/05/24 01:02:13;;;;;;;11.97;4.20;;;11.80;99.90;;;;;;10509128;28;20230;-71
2023/05/24 01:07:44;;;;;;;9.13;3.80;;;11.70;99.90;;;;;;10500646;28;20227;-68
2023/05/24 01:13:01;;;;;;;15.40;4.23;;;11.60;99.90;;;;;;10514551;28;20225;-69
2023/05/24 01:18:06;;;;;;;10.57;4.33;;;11.50;99.90;;;;;;10515577;28;20226;-69
2023/05/24 01:23:15;;;;;;;10.63;3.80;;;11.40;99.90;;;;;;10517316;28;20230;-69
2023/05/24 01:28:17;;;;;;;11.93;3.60;;;11.30;99.90;;;;;;10521977;28;20231;-70
2023/05/24 01:33:18;;;;;;;13.90;3.80;;;11.30;99.90;;;;;;10508225;28;20682;-69
2023/05/24 01:38:18;;;;;;;11.87;4.00;;;11.20;99.90;;;;;;10522544;28;20223;-69
2023/05/24 01:44:02;;;;;;;8.20;3.40;;;11.20;99.90;;;;;;10524485;28;20277;-69
2023/05/24 01:49:11;;;;;;;10.83;3.97;;;11.10;99.90;;;;;;10517052;28;20218;-68
2023/05/24 01:54:13;;;;;;;13.67;4.00;;;11.10;99.90;;;;;;10510633;28;20230;-68
2023/05/24 01:59:14;;;;;;;10.77;3.50;;;11.10;99.90;;;;;;10522898;28;20223;-67
2023/05/24 02:04:15;;;;;;;14.63;3.93;;;11.00;99.90;;;;;;10519905;28;20585;-68
2023/05/24 02:09:16;;;;;;;8.80;3.27;;;11.00;99.90;;;;;;10501090;28;20238;-67
2023/05/24 02:14:18;;;;;;;13.53;3.47;;;10.90;99.90;;;;;;10525516;28;20637;-69
2023/05/24 02:19:19;;;;;;;9.40;3.30;;;10.90;99.90;;;;;;10511782;28;20217;-67
2023/05/24 02:24:19;;;;;;;11.80;3.40;;;11.00;99.90;;;;;;10492576;28;20731;-68
2023/05/24 02:29:21;;;;;;;14.40;3.60;;;10.90;99.90;;;;;;10522330;28;20237;-67
2023/05/24 02:34:23;;;;;;;11.97;3.40;;;11.00;99.90;;;;;;10515289;28;20222;-67
2023/05/24 02:39:23;;;;;;;13.27;3.90;;;11.00;99.90;;;;;;10497628;28;20233;-70
2023/05/24 02:44:27;;;;;;;10.90;3.10;;;11.10;99.90;;;;;;10518760;28;20233;-68
2023/05/24 02:49:28;;;;;;;10.87;3.70;;;11.00;99.90;;;;;;10495462;28;20211;-69
2023/05/24 02:54:28;;;;;;;10.90;3.50;;;11.10;99.90;;;;;;10509861;28;20214;-69
2023/05/24 02:59:31;;;;;;;11.50;3.70;;;11.10;99.90;;;;;;10520200;28;20210;-70
2023/05/24 03:04:31;;;;;;;11.40;2.80;;;11.20;99.90;;;;;;10531583;28;20214;-68
2023/05/24 03:09:32;;;;;;;11.83;3.00;;;11.10;99.90;;;;;;10502651;28;20215;-68
2023/05/24 03:14:32;;;;;;;8.63;3.03;;;11.10;99.90;;;;;;10514321;28;20228;-67
2023/05/24 03:19:33;;;;;;;11.20;3.27;;;11.00;99.90;;;;;;10489515;28;20218;-69
2023/05/24 03:24:34;;;;;;;13.27;3.50;;;11.00;99.90;;;;;;10520877;28;20249;-69
2023/05/24 03:29:34;;;;;;;12.87;3.10;;;11.00;99.90;;;;;;10525648;28;20207;-68
2023/05/24 03:34:35;;;;;;;11.50;3.40;;;10.90;99.90;;;;;;10517814;28;20217;-67
2023/05/24 03:39:35;;;;;;;20.23;3.70;;;10.90;99.90;;;;;;10500085;28;20884;-68
2023/05/24 03:44:37;;;;;;;12.03;3.37;;;10.90;99.90;;;;;;10500611;28;20214;-68
2023/05/24 03:49:38;;;;;;;11.53;3.03;;;10.80;99.90;;;;;;10525242;28;20289;-67
2023/05/24 03:54:38;;;;;;;11.90;3.53;;;10.80;99.90;;;;;;10519018;28;20316;-68
2023/05/24 03:59:39;;;;;;;13.33;3.43;;;10.80;99.90;;;;;;10488256;28;20313;-68
2023/05/24 04:04:40;;;;;;;11.97;2.67;;;10.80;99.90;;;;;;10506484;28;20807;-68
2023/05/24 04:09:42;;;;;;;12.60;3.10;;;10.90;99.90;;;;;;10517991;28;20226;-67
2023/05/24 04:14:42;;;;;;;12.93;3.00;;;11.00;99.90;;;;;;10510705;28;20420;-70
2023/05/24 04:19:45;;;;;;;12.87;3.40;;;11.10;99.90;;;;;;10516201;28;20327;-69
2023/05/24 04:24:46;;;;;;;12.53;3.07;;;11.10;99.90;;;;;;10500138;28;20230;-75
2023/05/24 04:29:48;;;;;;;10.37;3.00;;;11.10;99.90;;;;;;10517514;28;20286;-73
2023/05/24 04:34:51;;;;;;;12.00;3.23;;;11.00;99.90;;;;;;10516902;28;20214;-69
2023/05/24 04:39:51;;;;;;;17.40;3.17;;;11.00;99.90;;;;;;10515566;28;20227;-69
2023/05/24 04:44:52;;;;;;;12.20;2.80;;;11.10;99.90;;;;;;10505150;28;20246;-66
2023/05/24 04:49:53;;;;;;;15.37;3.50;;;11.20;99.90;;;;;;10520855;28;20306;-67
2023/05/24 04:54:54;;;;;;;14.27;3.33;;;11.20;99.90;;;;;;10526108;28;20222;-68
2023/05/24 04:59:54;;;;;;;12.97;3.53;;;11.80;99.90;;;;;;10524198;28;20219;-67
2023/05/24 05:04:55;;;;;;;11.53;2.97;;;11.90;99.90;;;;;;10536065;28;20237;-68
2023/05/24 05:09:56;;;;;;;13.60;3.20;;;12.00;99.90;;;;;;10520564;28;20219;-68
2023/05/24 05:14:57;;;;;;;12.80;3.27;;;12.40;99.90;;;;;;10495967;28;20302;-67
2023/05/24 05:19:57;;;;;;;13.83;3.33;;;12.30;99.90;;;;;;10502040;28;20211;-67
2023/05/24 05:24:59;;;;;;;15.90;3.10;;;12.00;99.90;;;;;;10525159;28;20713;-67
2023/05/24 05:30:00;;;;;;;10.83;3.40;;;11.90;99.90;;;;;;10514640;28;20226;-66
2023/05/24 05:35:00;;;;;;;11.30;2.40;;;13.40;98.90;;;;;;10515750;28;20218;-67
2023/05/24 05:40:03;;;;;;;14.23;3.07;;;15.40;94.10;;;;;;10516681;28;20291;-73
2023/05/24 05:45:04;;;;;;;7.63;2.80;;;16.20;91.90;;;;;;10527822;28;20329;-74
2023/05/24 05:50:06;;;;;;;12.23;3.40;;;17.60;88.20;;;;;;10513963;28;20214;-73
2023/05/24 05:55:08;;;;;;;10.40;2.87;;;19.70;79.90;;;;;;10489106;28;20236;-73
2023/05/24 06:00:09;;;;;;;12.07;3.30;;;20.50;73.50;;;;;;10505321;28;20179;-74
2023/05/24 06:05:10;;;;;;;14.23;3.73;;;19.00;73.90;;;;;;10532762;28;20203;-74
2023/05/24 06:10:11;;;;;;;13.47;3.40;;;18.60;76.30;;;;;;10520214;28;20546;-70
2023/05/24 06:15:12;;;;;;;12.37;3.57;;;18.50;75.80;;;;;;10524258;28;20187;-72
2023/05/24 06:20:15;;;;;;;12.67;3.50;;;18.70;75.00;;;;;;10507955;28;20677;-74
2023/05/24 06:25:18;;;;;;;13.47;3.20;;;19.20;73.50;;;;;;10514025;28;20704;-71
2023/05/24 06:30:19;;;;;;;11.13;3.23;;;20.10;69.70;;;;;;10508152;28;20189;-73
2023/05/24 06:35:20;;;;;;;6.70;2.77;;;20.90;67.50;;;;;;10510546;28;20611;-71
2023/05/24 06:40:21;;;;;;;8.33;3.07;;;22.70;60.20;;;;;;10513676;28;20190;-72
2023/05/24 06:45:22;;;;;;;11.77;3.50;;;23.90;56.50;;;;;;10511357;28;20212;-72
2023/05/24 06:50:22;;;;;;;10.20;3.70;;;24.30;54.60;;;;;;10513543;28;20544;-73
2023/05/24 06:55:23;;;;;;;11.37;3.50;;;23.30;56.60;;;;;;10511725;28;20193;-71
2023/05/24 07:00:24;;;;;;;13.33;3.70;;;22.50;57.50;;;;;;10512437;28;20270;-71
2023/05/24 07:05:25;;;;;;;11.93;3.90;;;23.30;55.30;;;;;;10495639;28;20234;-72
2023/05/24 07:10:25;;;;;;;10.23;3.60;;;23.90;53.20;;;;;;10510829;28;20302;-72
2023/05/24 07:15:26;;;;;;;14.30;4.23;;;22.20;55.80;;;;;;10511672;28;20217;-72
2023/05/24 07:20:27;;;;;;;10.57;3.70;;;21.90;57.60;;;;;;10492299;28;20242;-71
2023/05/24 07:25:28;;;;;;;13.93;3.47;;;22.40;56.70;;;;;;10511530;28;20217;-71
2023/05/24 07:30:29;;;;;;;11.23;3.70;;;23.60;54.20;;;;;;10519101;28;20227;-71
2023/05/24 07:35:30;;;;;;;13.17;3.90;;;23.20;53.60;;;;;;10515744;28;20234;-71
2023/05/24 07:40:31;;;;;;;9.67;3.37;;;25.50;50.00;;;;;;10519905;28;20234;-71
2023/05/24 07:45:31;;;;;;;11.00;3.57;;;25.60;50.30;;;;;;10509317;28;20637;-72
2023/05/24 07:50:32;;;;;;;11.60;3.67;;;25.20;47.40;;;;;;10511637;28;20309;-72
2023/05/24 07:55:32;;;;;;;12.07;3.63;;;24.40;49.10;;;;;;10514924;28;20222;-71
2023/05/24 08:00:33;;;;;;;10.57;3.40;;;24.10;49.10;;;;;;10505802;28;20272;-71
2023/05/24 08:05:33;;;;;;;10.90;3.60;;;23.90;49.60;;;;;;10495853;28;20227;-72
2023/05/24 08:10:34;;;;;;;11.00;4.00;;;25.00;49.20;;;;;;10508673;28;20211;-72
2023/05/24 08:15:35;;;;;;;13.80;3.90;;;24.80;48.40;;;;;;10512371;28;20214;-72
2023/05/24 08:20:36;;;;;;;12.13;4.27;;;23.60;50.00;;;;;;10504213;28;20238;-71
2023/05/24 08:25:36;;;;;;;10.20;3.37;;;25.10;47.40;;;;;;10517268;28;20681;-72
2023/05/24 08:30:37;;;;;;;11.77;3.90;;;25.40;47.50;;;;;;10520325;28;20214;-71
2023/05/24 08:35:38;;;;;;;11.17;3.70;;;25.00;46.50;;;;;;10522080;28;20218;-71
2023/05/24 08:40:38;;;;;;;9.80;3.50;;;24.30;48.70;;;;;;10524563;28;20207;-73
2023/05/24 08:45:39;;;;;;;14.60;3.80;;;23.90;47.00;;;;;;10513048;28;20313;-72
2023/05/24 08:50:41;;;;;;;11.10;3.53;;;22.20;50.20;;;;;;10519606;28;20211;-72
2023/05/24 08:55:43;;;;;;;11.13;3.77;;;20.90;51.60;;;;;;10494536;28;20766;-72
2023/05/24 09:00:43;;;;;;;9.90;3.90;;;19.80;55.40;;;;;;10526381;28;20238;-71
2023/05/24 09:05:44;;;;;;;12.13;4.40;;;19.50;57.00;;;;;;10513716;28;20781;-71
2023/05/24 09:10:46;;;;;;;12.60;3.80;;;19.40;58.80;;;;;;10519415;28;20210;-71
2023/05/24 09:15:47;;;;;;;14.63;3.73;;;20.60;57.20;;;;;;10512853;28;20223;-72
2023/05/24 09:20:47;;;;;;;12.33;4.40;;;22.20;54.10;;;;;;10518765;28;20212;-71
2023/05/24 09:25:48;;;;;;;9.90;3.83;;;22.80;52.60;;;;;;10515346;28;20234;-71
2023/05/24 09:30:58;;;;;;;11.77;3.50;;;21.90;53.80;;;;;;10511357;28;20226;-72
2023/05/24 09:36:00;;;;;;;12.83;3.80;;;22.40;52.50;;;;;;10501595;28;20249;-73
2023/05/24 09:41:06;;;;;;;12.77;4.00;;;24.70;50.90;;;;;;10503435;28;20242;-72
2023/05/24 09:46:06;;;;;;;13.03;4.30;;;26.70;45.60;;;;;;10519710;28;20222;-72
2023/05/24 09:51:08;;;;;;;14.07;4.00;;;27.80;41.60;;;;;;10503050;28;20218;-72
2023/05/24 09:56:09;;;;;;;8.97;3.77;;;27.30;42.20;;;;;;10509764;28;20300;-72
2023/05/24 10:01:12;;;;;;;10.40;4.00;;;30.30;39.40;;;;;;10514120;28;20310;-72
2023/05/24 10:06:13;;;;;;;10.37;3.83;;;30.30;38.20;;;;;;10510062;28;20226;-73
2023/05/24 10:11:14;;;;;;;12.17;3.70;;;30.40;39.40;;;;;;10519102;28;20219;-72
2023/05/24 10:16:15;;;;;;;10.97;4.13;;;32.70;34.80;;;;;;10522641;28;20291;-72
2023/05/24 10:21:20;;;;;;;10.13;4.07;;;29.20;36.30;;;;;;10521119;28;20219;-72
2023/05/24 10:26:27;;;;;;;16.13;4.23;;;26.90;38.80;;;;;;10514274;28;20314;-72
2023/05/24 10:31:31;;;;;;;11.97;4.10;;;28.10;39.80;;;;;;10513457;28;20725;-72
2023/05/24 10:36:32;;;;;;;10.57;3.80;;;28.50;37.90;;;;;;10517402;28;20697;-72
2023/05/24 10:41:40;;;;;;;10.33;3.63;;;30.10;35.20;;;;;;10510855;28;20230;-72
2023/05/24 10:47:12;;;;;;;11.20;4.13;;;29.90;35.90;;;;;;10496317;28;20226;-73
2023/05/24 10:52:13;;;;;;;12.60;4.20;;;30.20;35.10;;;;;;10518188;28;20219;-72
2023/05/24 10:57:23;;;;;;;10.93;4.10;;;29.70;36.60;;;;;;10496256;28;20214;-72
2023/05/24 11:02:27;;;;;;;13.00;4.27;;;27.50;38.60;;;;;;10516882;28;20219;-73
2023/05/24 11:07:27;;;;;;;9.37;4.03;;;28.70;37.00;;;;;;10516526;28;20317;-72
2023/05/24 11:12:33;;;;;;;10.03;3.70;;;31.40;35.00;;;;;;10516526;28;20677;-72
2023/05/24 11:18:07;;;;;;;13.00;4.07;;;31.70;34.50;;;;;;10498286;28;20293;-72
2023/05/24 11:23:08;;;;;;;11.50;4.20;;;29.40;34.70;;;;;;10507895;28;20417;-72
2023/05/24 11:28:10;;;;;;;10.97;3.93;;;29.50;34.20;;;;;;10489526;28;20298;-72
2023/05/24 11:33:18;;;;;;;11.90;4.17;;;28.40;36.50;;;;;;10507117;28;20234;-72
2023/05/24 11:38:20;;;;;;;9.67;3.97;;;29.00;36.40;;;;;;10492520;28;20662;-72
2023/05/24 11:43:24;;;;;;;11.20;3.63;;;24.20;41.80;;;;;;10502358;28;20592;-72
2023/05/24 11:48:25;;;;;;;9.30;3.60;;;21.40;47.50;;;;;;10510499;28;20246;-71
2023/05/24 11:53:25;;;;;;;10.47;3.67;;;20.80;49.60;;;;;;10497291;28;20215;-71
2023/05/24 11:58:46;;;;;;;10.27;3.73;;;20.30;49.80;;;;;;10499204;28;20215;-71
2023/05/24 12:03:46;;;;;;;14.10;4.10;;;20.10;51.10;;;;;;10488072;28;20226;-71
2023/05/24 12:08:49;;;;;;;13.40;4.00;;;19.90;52.40;;;;;;10506644;28;20218;-72
2023/05/24 12:13:50;;;;;;;12.13;4.00;;;20.30;52.70;;;;;;10514306;28;20670;-71
2023/05/24 12:18:51;;;;;;;9.57;3.43;;;20.20;50.40;;;;;;10506184;28;20311;-72
2023/05/24 12:23:51;;;;;;;9.03;3.50;;;20.30;51.40;;;;;;10521291;28;20221;-72
2023/05/24 12:28:53;;;;;;;10.63;3.93;;;19.60;51.10;;;;;;10503703;28;20221;-71
2023/05/24 12:33:57;;;;;;;8.53;3.67;;;19.80;51.50;;;;;;10505982;28;20247;-71
2023/05/24 12:39:16;;;;;;;9.27;3.20;;;20.10;51.10;;;;;;10498883;28;20262;-71
2023/05/24 12:44:16;;;;;;;12.43;3.50;;;19.90;51.70;;;;;;10512143;28;20640;-71
2023/05/24 12:49:17;;;;;;;10.37;3.37;;;19.70;51.20;;;;;;10491346;28;20242;-72
2023/05/24 12:54:20;;;;;;;6.93;3.13;;;19.40;52.50;;;;;;10517219;28;20746;-71
2023/05/24 12:59:21;;;;;;;9.17;3.60;;;19.60;53.80;;;;;;10500295;28;20721;-71
2023/05/24 13:04:25;;;;;;;11.27;3.40;;;20.00;52.20;;;;;;10516407;28;20230;-72
2023/05/24 13:09:26;;;;;;;7.33;3.10;;;19.60;50.90;;;;;;10497965;28;20215;-71
2023/05/24 13:14:27;;;;;;;10.10;3.80;;;20.10;51.00;;;;;;10518347;28;20226;-72
2023/05/24 13:19:28;;;;;;;15.47;4.17;;;21.00;49.50;;;;;;10518117;28;20218;-71
2023/05/24 13:24:28;;;;;;;9.70;3.43;;;20.40;49.90;;;;;;10517522;28;20232;-72
2023/05/24 13:29:29;;;;;;;12.03;3.90;;;19.80;51.10;;;;;;10523184;28;20203;-71
2023/05/24 13:34:30;;;;;;;9.43;3.47;;;19.50;52.50;;;;;;10518482;28;20221;-72
2023/05/24 13:39:31;;;;;;;8.93;3.47;;;19.70;52.40;;;;;;10522392;28;20222;-72
2023/05/24 13:44:31;;;;;;;9.37;3.33;;;19.80;51.90;;;;;;10515533;28;20322;-71
2023/05/24 13:49:32;;;;;;;8.87;3.50;;;19.90;50.60;;;;;;10505967;28;20631;-71
2023/05/24 13:54:33;;;;;;;8.37;3.47;;;19.70;51.60;;;;;;10515620;28;20310;-72
2023/05/24 13:59:34;;;;;;;12.40;3.63;;;19.50;51.60;;;;;;10516752;28;20223;-72
2023/05/24 14:04:34;;;;;;;11.97;3.50;;;19.50;51.50;;;;;;10522242;28;20227;-72
2023/05/24 14:09:35;;;;;;;7.63;3.47;;;19.20;52.90;;;;;;10499110;28;20284;-72
2023/05/24 14:14:36;;;;;;;8.20;3.33;;;19.10;52.80;;;;;;10516681;28;20218;-71
2023/05/24 14:19:37;;;;;;;10.50;3.67;;;19.10;52.10;;;;;;10518724;28;20945;-72
2023/05/24 14:24:37;;;;;;;7.10;3.13;;;19.20;52.00;;;;;;10518690;28;20214;-71
2023/05/24 14:29:38;;;;;;;14.87;3.70;;;19.50;52.50;;;;;;10506678;28;20215;-72
2023/05/24 14:34:39;;;;;;;9.70;3.63;;;19.40;51.50;;;;;;10494612;28;20222;-72
2023/05/24 14:39:40;;;;;;;13.20;3.77;;;19.20;53.00;;;;;;10497376;28;20834;-72
2023/05/24 14:44:41;;;;;;;12.40;3.57;;;19.30;52.50;;;;;;10512461;28;20231;-73
2023/05/24 14:49:41;;;;;;;8.17;3.50;;;19.30;51.90;;;;;;10516126;28;20703;-71
2023/05/24 14:54:42;;;;;;;7.90;3.17;;;18.90;53.20;;;;;;10511289;28;20739;-72
2023/05/24 14:59:42;;;;;;;7.03;2.97;;;19.50;52.30;;;;;;10505032;28;20222;-71
2023/05/24 15:04:43;;;;;;;12.97;3.40;;;20.00;51.40;;;;;;10504751;28;20219;-71
2023/05/24 15:09:43;;;;;;;7.73;3.27;;;19.80;50.90;;;;;;10511146;28;20674;-71
2023/05/24 15:14:44;;;;;;;9.27;3.67;;;19.80;50.80;;;;;;10516610;28;20686;-72
2023/05/24 15:19:45;;;;;;;8.33;3.20;;;19.90;50.40;;;;;;10489319;28;20230;-71
2023/05/24 15:24:46;;;;;;;9.50;3.40;;;19.50;50.70;;;;;;10492101;28;20231;-72
2023/05/24 15:29:46;;;;;;;8.07;3.40;;;19.40;50.60;;;;;;10518761;28;20245;-72
2023/05/24 15:34:50;;;;;;;7.67;3.20;;;18.90;52.10;;;;;;10490827;28;20223;-72
2023/05/24 15:39:51;;;;;;;10.20;3.63;;;18.80;54.20;;;;;;10507514;28;20231;-72
2023/05/24 15:44:52;;;;;;;9.47;3.40;;;18.90;52.40;;;;;;10516832;28;20217;-70
2023/05/24 15:49:52;;;;;;;11.30;3.40;;;18.60;52.90;;;;;;10498389;28;20218;-71
2023/05/24 15:54:54;;;;;;;9.33;3.00;;;18.50;52.50;;;;;;10502427;28;20234;-72
2023/05/24 15:59:55;;;;;;;12.77;3.50;;;18.60;52.50;;;;;;10490369;28;20697;-72
2023/05/24 16:04:56;;;;;;;6.87;3.00;;;18.80;52.30;;;;;;10515823;28;20563;-72
2023/05/24 16:09:56;;;;;;;9.37;3.30;;;18.60;52.40;;;;;;10505969;28;20650;-72
2023/05/24 16:14:59;;;;;;;7.57;3.20;;;18.60;53.40;;;;;;10513871;28;20246;-72
2023/05/24 16:20:00;;;;;;;8.93;3.40;;;18.50;54.10;;;;;;10524185;28;20222;-72
2023/05/24 16:25:00;;;;;;;10.43;3.33;;;18.00;53.70;;;;;;10497297;28;20238;-71
2023/05/24 16:30:01;;;;;;;5.87;2.70;;;18.00;54.00;;;;;;10514562;28;20225;-72
2023/05/24 16:35:01;;;;;;;6.83;3.20;;;17.70;54.00;;;;;;10508398;28;20250;-72
2023/05/24 16:40:03;;;;;;;9.07;2.90;;;17.50;54.70;;;;;;10516054;28;20230;-72
2023/05/24 16:45:05;;;;;;;8.70;3.13;;;17.40;54.80;;;;;;10521830;28;20238;-72
2023/05/24 16:50:08;;;;;;;8.20;3.30;;;17.10;55.40;;;;;;10521543;28;20256;-71
2023/05/24 16:55:11;;;;;;;9.20;2.53;;;17.20;55.60;;;;;;10516620;28;20183;-71
2023/05/24 17:00:14;;;;;;;7.70;3.07;;;17.10;56.00;;;;;;10496409;28;20236;-71
2023/05/24 17:05:14;;;;;;;10.90;2.80;;;16.90;56.00;;;;;;10514246;28;20256;-72
2023/05/24 17:10:15;;;;;;;7.47;2.70;;;16.90;55.30;;;;;;10526451;28;20215;-72
2023/05/24 17:15:16;;;;;;;8.93;3.07;;;17.00;55.60;;;;;;10498232;28;20284;-70
2023/05/24 17:20:16;;;;;;;8.13;3.17;;;17.20;55.20;;;;;;10525870;28;20187;-71
2023/05/24 17:25:17;;;;;;;7.77;2.97;;;17.10;55.50;;;;;;10514120;28;20732;-72
2023/05/24 17:30:18;;;;;;;6.30;2.80;;;17.00;56.00;;;;;;10507693;28;20189;-72
2023/05/24 17:35:20;;;;;;;7.97;3.10;;;16.90;57.00;;;;;;10523591;28;21062;-72
2023/05/24 17:40:20;;;;;;;10.40;2.70;;;17.00;57.70;;;;;;10514667;28;20490;-72
2023/05/24 17:45:21;;;;;;;8.07;2.80;;;16.90;57.60;;;;;;10494315;28;20213;-74
2023/05/24 17:50:22;;;;;;;8.27;3.00;;;17.10;58.10;;;;;;10502111;28;20178;-72
2023/05/24 17:55:23;;;;;;;8.00;3.07;;;17.00;58.20;;;;;;10519533;28;20193;-70
2023/05/24 18:00:26;;;;;;;9.27;3.10;;;17.10;58.50;;;;;;10489073;28;20566;-71
2023/05/24 18:05:27;;;;;;;9.13;2.93;;;16.90;59.30;;;;;;10516098;28;20229;-72
2023/05/24 18:10:27;;;;;;;9.00;3.40;;;17.00;60.60;;;;;;10497080;28;20225;-72
2023/05/24 18:15:28;;;;;;;9.93;3.70;;;17.00;59.50;;;;;;10525446;28;20642;-72
2023/05/24 18:20:28;;;;;;;10.70;3.43;;;16.80;59.70;;;;;;10496827;28;20591;-74
2023/05/24 18:25:29;;;;;;;9.33;3.13;;;16.70;60.30;;;;;;10516765;28;20224;-74
2023/05/24 18:30:30;;;;;;;6.63;3.00;;;16.50;60.30;;;;;;10514181;28;20765;-73
2023/05/24 18:35:31;;;;;;;7.23;2.93;;;16.40;61.30;;;;;;10514389;28;20231;-72
2023/05/24 18:40:31;;;;;;;10.97;3.07;;;16.30;63.10;;;;;;10513435;28;20245;-72
2023/05/24 18:45:32;;;;;;;10.90;3.30;;;16.10;62.90;;;;;;10517176;28;20229;-75
2023/05/24 18:50:32;;;;;;;10.30;3.17;;;16.00;63.00;;;;;;10496229;28;20297;-73
2023/05/24 18:55:35;;;;;;;8.57;2.83;;;15.90;63.90;;;;;;10513290;28;20214;-74
2023/05/24 19:00:36;;;;;;;10.60;2.90;;;15.70;64.20;;;;;;10517381;28;20287;-73
2023/05/24 19:05:37;;;;;;;8.80;3.00;;;15.60;65.00;;;;;;10515260;28;20220;-74
2023/05/24 19:10:40;;;;;;;12.30;3.33;;;15.50;65.40;;;;;;10533454;28;20236;-72
2023/05/24 19:15:40;;;;;;;8.10;3.17;;;15.40;66.60;;;;;;10534075;28;20686;-74
2023/05/24 19:20:41;;;;;;;10.43;2.93;;;15.30;66.90;;;;;;10519490;28;20325;-74
2023/05/24 19:25:42;;;;;;;6.77;3.17;;;15.20;67.40;;;;;;10536437;28;20218;-73
2023/05/24 19:30:43;;;;;;;9.57;3.23;;;15.20;68.20;;;;;;10514292;28;20845;-73
2023/05/24 19:35:43;;;;;;;10.97;3.53;;;15.10;69.70;;;;;;10517906;28;20266;-75
2023/05/24 19:40:44;;;;;;;11.33;3.73;;;15.00;69.60;;;;;;10528406;28;20224;-75
2023/05/24 19:45:46;;;;;;;7.03;2.93;;;15.00;70.40;;;;;;10514604;28;20250;-74
2023/05/24 19:50:47;;;;;;;7.30;3.30;;;14.80;70.80;;;;;;10514931;28;20217;-73
2023/05/24 19:55:47;;;;;;;12.33;3.97;;;14.70;71.10;;;;;;10538972;28;20291;-73
2023/05/24 20:00:48;;;;;;;7.97;3.27;;;14.60;72.20;;;;;;10511953;28;20225;-74
2023/05/24 20:05:49;;;;;;;8.63;3.20;;;14.50;73.30;;;;;;10522376;28;20221;-76
2023/05/24 20:10:50;;;;;;;8.07;2.90;;;14.30;74.00;;;;;;10533446;28;20213;-73
2023/05/24 20:15:51;;;;;;;8.43;3.67;;;14.20;75.00;;;;;;10513980;28;20211;-75
2023/05/24 20:20:53;;;;;;;10.90;3.73;;;14.10;76.30;;;;;;10528170;28;20267;-72
2023/05/24 20:25:54;;;;;;;10.13;3.40;;;14.10;77.10;;;;;;10533031;28;20223;-74
2023/05/24 20:30:55;;;;;;;9.07;3.63;;;14.00;77.90;;;;;;10532555;28;20202;-74
2023/05/24 20:35:57;;;;;;;7.43;3.13;;;13.80;79.00;;;;;;10536785;28;20218;-72
2023/05/24 20:40:58;;;;;;;8.90;3.27;;;13.70;79.60;;;;;;10532149;28;20233;-75
2023/05/24 20:45:59;;;;;;;10.53;3.70;;;13.60;80.60;;;;;;10532139;28;20221;-74
2023/05/24 20:51:00;;;;;;;8.60;3.80;;;13.50;81.50;;;;;;10511400;28;20221;-70
2023/05/24 20:56:00;;;;;;;8.03;4.00;;;13.40;82.50;;;;;;10514953;28;20766;-73
2023/05/24 21:01:01;;;;;;;9.93;3.50;;;13.30;83.40;;;;;;10504743;28;20235;-72
2023/05/24 21:06:02;;;;;;;13.77;4.13;;;13.30;84.50;;;;;;10505786;28;20446;-69
2023/05/24 21:11:03;;;;;;;12.00;3.73;;;13.20;85.50;;;;;;10521798;28;20223;-75
2023/05/24 21:16:04;;;;;;;10.60;4.00;;;13.10;86.40;;;;;;10514432;28;20215;-73
2023/05/24 21:21:05;;;;;;;11.23;4.57;;;13.00;87.20;;;;;;10509278;28;20222;-75
2023/05/24 21:26:05;;;;;;;10.53;4.00;;;12.80;88.10;;;;;;10487969;28;20229;-72
2023/05/24 21:31:06;;;;;;;11.03;3.80;;;12.80;89.10;;;;;;10526090;28;20222;-72
2023/05/24 21:36:07;;;;;;;9.20;3.90;;;12.70;89.90;;;;;;10520488;28;20710;-72
2023/05/24 21:41:11;;;;;;;11.30;3.70;;;12.60;90.20;;;;;;10501044;28;20293;-72
2023/05/24 21:46:11;;;;;;;8.97;4.13;;;12.50;90.60;;;;;;10513648;28;20716;-72
2023/05/24 21:51:14;;;;;;;13.37;4.23;;;12.50;90.90;;;;;;10514096;28;20240;-72
2023/05/24 21:56:14;;;;;;;10.30;3.80;;;12.40;91.10;;;;;;10518033;28;20214;-73
2023/05/24 22:01:15;;;;;;;12.83;4.13;;;12.30;91.40;;;;;;10522107;28;20211;-73
2023/05/24 22:06:15;;;;;;;10.07;4.23;;;12.30;91.70;;;;;;10501528;28;20259;-73
2023/05/24 22:11:16;;;;;;;12.70;4.23;;;12.20;91.90;;;;;;10498535;28;20226;-72
2023/05/24 22:16:17;;;;;;;11.43;4.23;;;12.20;92.20;;;;;;10525195;28;20766;-73
2023/05/24 22:21:20;;;;;;;14.33;3.80;;;12.10;92.40;;;;;;10500303;28;20226;-74
2023/05/24 22:26:21;;;;;;;13.17;4.13;;;12.10;92.70;;;;;;10517967;28;20302;-74
2023/05/24 22:31:22;;;;;;;13.63;4.40;;;12.00;93.00;;;;;;10516195;28;20219;-75
2023/05/24 22:36:23;;;;;;;10.23;3.80;;;11.90;93.40;;;;;;10513128;28;20230;-74
2023/05/24 22:41:23;;;;;;;8.40;3.50;;;11.80;93.90;;;;;;10513910;28;20211;-73
2023/05/24 22:46:24;;;;;;;12.77;4.10;;;11.80;94.30;;;;;;10514354;28;20845;-74
2023/05/24 22:51:25;;;;;;;10.63;4.37;;;11.70;94.60;;;;;;10522803;28;20250;-74
2023/05/24 22:56:26;;;;;;;9.40;3.63;;;11.70;94.80;;;;;;10513254;28;20839;-75
2023/05/24 23:01:26;;;;;;;11.43;3.90;;;11.70;95.20;;;;;;10514425;28;20273;-73
2023/05/24 23:06:36;;;;;;;14.60;4.07;;;11.60;95.50;;;;;;10495466;28;20225;-73
2023/05/24 23:11:36;;;;;;;9.83;3.90;;;11.60;96.10;;;;;;10498897;28;20218;-73
2023/05/24 23:16:43;;;;;;;12.47;4.10;;;11.50;96.50;;;;;;10524145;28;20715;-74
2023/05/24 23:21:44;;;;;;;14.50;4.43;;;11.50;97.10;;;;;;10505427;28;20289;-73
2023/05/24 23:26:45;;;;;;;12.00;4.13;;;11.40;97.70;;;;;;10511189;28;20218;-73
2023/05/24 23:31:45;;;;;;;10.13;3.87;;;11.30;98.30;;;;;;10504459;28;20302;-73
2023/05/24 23:36:49;;;;;;;12.87;4.30;;;11.30;98.90;;;;;;10504687;28;20230;-74
2023/05/24 23:41:49;;;;;;;11.60;4.47;;;11.20;99.50;;;;;;10505658;28;20283;-74
2023/05/24 23:46:51;;;;;;;13.17;4.80;;;11.10;99.90;;;;;;10508293;28;20318;-74
2023/05/24 23:51:52;;;;;;;11.87;4.47;;;11.10;99.90;;;;;;10498509;28;20227;-74
2023/05/24 23:56:52;;;;;;;11.40;4.47;;;11.00;99.90;;;;;;10497306;28;20607;-72
